createdAt,value
2023-01-13T00:01:29.740Z,92.59
2023-01-13T00:04:01.037Z,92.53
2023-01-13T00:06:29.741Z,92.65
2023-01-13T00:08:58.034Z,92.73
2023-01-13T00:11:26.643Z,92.83
2023-01-13T00:13:54.978Z,92.86
2023-01-13T00:16:23.095Z,92.94
2023-01-13T00:18:51.420Z,92.94
2023-01-13T00:21:21.940Z,92.85
2023-01-13T00:23:52.206Z,92.92
2023-01-13T00:26:26.188Z,92.79
2023-01-13T00:28:58.967Z,92.87
2023-01-13T00:31:29.096Z,92.95
2023-01-13T00:33:58.207Z,92.98
2023-01-13T00:36:26.619Z,92.90
2023-01-13T00:38:55.402Z,92.98
2023-01-13T00:41:25.612Z,92.92
2023-01-13T00:43:54.115Z,92.81
2023-01-13T00:46:23.105Z,92.91
2023-01-13T00:48:51.812Z,93.00
2023-01-13T00:51:21.765Z,93.05
2023-01-13T00:53:51.839Z,93.17
2023-01-13T00:56:39.166Z,93.32
2023-01-13T00:59:11.207Z,93.21
2023-01-13T01:01:40.798Z,92.99
2023-01-13T01:04:09.107Z,92.84
2023-01-13T01:06:38.022Z,92.59
2023-01-13T01:09:06.521Z,92.62
2023-01-13T01:11:35.016Z,92.55
2023-01-13T01:14:04.223Z,92.60
2023-01-13T01:16:34.110Z,92.55
2023-01-13T01:19:03.727Z,92.62
2023-01-13T01:21:32.762Z,92.77
2023-01-13T01:24:02.519Z,92.81
2023-01-13T01:26:31.825Z,92.88
2023-01-13T01:29:02.431Z,92.88
2023-01-13T01:31:33.382Z,92.96
2023-01-13T01:34:02.074Z,92.92
2023-01-13T01:36:30.573Z,92.97
2023-01-13T01:38:59.520Z,93.02
2023-01-13T01:41:31.706Z,93.17
2023-01-13T01:44:28.665Z,93.29
2023-01-13T01:46:57.874Z,93.34
2023-01-13T01:49:31.854Z,93.47
2023-01-13T01:52:06.712Z,93.64
2023-01-13T01:54:44.205Z,93.63
2023-01-13T01:57:18.723Z,93.59
2023-01-13T01:59:47.426Z,93.63
2023-01-13T02:02:16.312Z,93.68
2023-01-13T02:04:53.437Z,93.65
2023-01-13T02:07:33.648Z,93.70
2023-01-13T02:10:06.351Z,93.86
2023-01-13T02:12:34.866Z,93.76
2023-01-13T02:15:06.500Z,93.73
2023-01-13T02:18:13.650Z,93.82
2023-01-13T02:20:45.096Z,93.84
2023-01-13T02:23:55.060Z,94.00
2023-01-13T02:26:55.434Z,94.03
2023-01-13T02:30:02.300Z,94.14
2023-01-13T02:32:40.286Z,94.14
2023-01-13T02:35:27.215Z,94.10
2023-01-13T02:37:58.789Z,94.09
2023-01-13T02:40:38.164Z,94.14
2023-01-13T02:43:37.641Z,94.35
2023-01-13T02:46:23.628Z,94.24
2023-01-13T02:48:54.823Z,94.06
2023-01-13T02:51:27.289Z,93.90
2023-01-13T02:54:00.242Z,93.73
2023-01-13T02:56:31.792Z,93.59
2023-01-13T02:59:01.775Z,93.71
2023-01-13T03:01:30.324Z,93.83
2023-01-13T03:03:58.500Z,93.96
2023-01-13T03:06:54.601Z,93.98
2023-01-13T03:09:29.971Z,94.01
2023-01-13T03:12:40.110Z,94.04
2023-01-13T03:15:23.115Z,94.28
2023-01-13T03:18:40.056Z,94.46
2023-01-13T03:21:39.439Z,94.56
2023-01-13T03:24:26.023Z,94.67
2023-01-13T03:27:06.041Z,94.86
2023-01-13T03:29:36.865Z,94.94
2023-01-13T03:32:26.867Z,95.05
2023-01-13T03:35:10.117Z,95.05
2023-01-13T03:37:44.151Z,94.97
2023-01-13T03:40:22.816Z,95.05
2023-01-13T03:43:19.607Z,94.98
2023-01-13T03:45:53.822Z,94.95
2023-01-13T03:48:23.996Z,94.77
2023-01-13T03:50:55.375Z,94.57
2023-01-13T03:53:28.699Z,94.44
2023-01-13T03:56:07.109Z,94.41
2023-01-13T03:58:40.267Z,94.45
2023-01-13T04:01:19.264Z,94.58
2023-01-13T04:04:08.484Z,94.64
2023-01-13T04:06:52.400Z,94.58
2023-01-13T04:09:41.959Z,94.57
2023-01-13T04:12:51.536Z,94.58
2023-01-13T04:15:23.555Z,94.57
2023-01-13T04:17:52.245Z,94.55
2023-01-13T04:20:20.942Z,94.59
2023-01-13T04:22:49.157Z,94.51
2023-01-13T04:25:17.243Z,94.33
2023-01-13T04:27:45.355Z,94.21
2023-01-13T04:30:14.008Z,93.86
2023-01-13T04:32:42.308Z,93.98
2023-01-13T04:35:10.699Z,93.94
2023-01-13T04:37:38.862Z,93.88
2023-01-13T04:40:08.172Z,93.92
2023-01-13T04:42:36.414Z,93.94
2023-01-13T04:45:05.295Z,93.77
2023-01-13T04:47:33.609Z,93.69
2023-01-13T04:50:01.826Z,93.62
2023-01-13T04:52:29.899Z,93.71
2023-01-13T04:54:58.117Z,93.78
2023-01-13T04:57:26.265Z,93.67
2023-01-13T04:59:55.796Z,93.55
2023-01-13T05:02:24.016Z,93.69
2023-01-13T05:04:52.240Z,93.86
2023-01-13T05:07:20.351Z,93.71
2023-01-13T05:09:48.548Z,93.68
2023-01-13T05:12:35.651Z,93.57
2023-01-13T05:15:22.872Z,93.57
2023-01-13T05:17:51.576Z,93.66
2023-01-13T05:20:19.926Z,93.64
2023-01-13T05:23:06.719Z,93.37
2023-01-13T05:25:44.503Z,93.44
2023-01-13T05:28:12.997Z,93.59
2023-01-13T05:30:44.046Z,93.75
2023-01-13T05:33:14.936Z,93.59
2023-01-13T05:35:45.370Z,93.88
2023-01-13T05:38:14.531Z,93.72
2023-01-13T05:41:01.483Z,93.66
2023-01-13T05:43:29.601Z,93.78
2023-01-13T05:46:05.747Z,93.71
2023-01-13T05:48:37.571Z,93.67
2023-01-13T05:51:07.989Z,93.65
2023-01-13T05:53:36.959Z,93.64
2023-01-13T05:56:07.251Z,93.73
2023-01-13T05:58:35.978Z,93.79
2023-01-13T06:01:07.475Z,93.91
2023-01-13T06:03:37.956Z,93.84
2023-01-13T06:06:09.079Z,93.67
2023-01-13T06:08:39.561Z,93.69
2023-01-13T06:11:08.101Z,93.82
2023-01-13T06:13:36.264Z,93.80
2023-01-13T06:16:04.782Z,93.77
2023-01-13T06:18:33.085Z,93.83
2023-01-13T06:21:01.369Z,93.75
2023-01-13T06:23:29.724Z,93.84
2023-01-13T06:26:07.164Z,93.87
2023-01-13T06:28:35.729Z,93.62
2023-01-13T06:31:07.544Z,93.69
2023-01-13T06:33:45.969Z,93.90
2023-01-13T06:36:18.722Z,93.74
2023-01-13T06:38:52.227Z,93.65
2023-01-13T06:41:44.107Z,93.65
2023-01-13T06:44:12.671Z,93.69
2023-01-13T06:46:41.103Z,93.63
2023-01-13T06:49:09.709Z,93.61
2023-01-13T06:51:37.822Z,93.51
2023-01-13T06:54:06.029Z,93.42
2023-01-13T06:56:34.283Z,93.41
2023-01-13T06:59:02.573Z,93.38
2023-01-13T07:01:30.855Z,93.55
2023-01-13T07:04:00.036Z,93.64
2023-01-13T07:06:28.913Z,93.56
2023-01-13T07:08:57.188Z,93.64
2023-01-13T07:11:25.358Z,93.56
2023-01-13T07:14:12.363Z,93.56
2023-01-13T07:16:40.510Z,93.46
2023-01-13T07:19:08.673Z,93.30
2023-01-13T07:21:36.844Z,93.42
2023-01-13T07:24:05.397Z,93.52
2023-01-13T07:26:33.684Z,93.42
2023-01-13T07:29:01.879Z,93.40
2023-01-13T07:31:30.030Z,93.32
2023-01-13T07:33:58.161Z,93.20
2023-01-13T07:36:26.634Z,93.17
2023-01-13T07:38:55.079Z,93.23
2023-01-13T07:41:42.859Z,93.21
2023-01-13T07:44:11.007Z,92.84
2023-01-13T07:46:40.567Z,92.86
2023-01-13T07:49:09.596Z,92.88
2023-01-13T07:51:39.462Z,92.95
2023-01-13T07:54:07.601Z,92.83
2023-01-13T07:56:35.806Z,92.67
2023-01-13T07:59:04.026Z,92.37
2023-01-13T08:01:32.431Z,92.05
2023-01-13T08:04:00.712Z,92.01
2023-01-13T08:06:28.857Z,91.90
2023-01-13T08:08:57.010Z,91.68
2023-01-13T08:11:25.164Z,91.66
2023-01-13T08:13:57.830Z,91.51
2023-01-13T08:16:26.346Z,91.13
2023-01-13T08:18:54.563Z,90.96
2023-01-13T08:21:22.787Z,90.81
2023-01-13T08:23:50.932Z,90.44
2023-01-13T08:26:19.434Z,90.15
2023-01-13T08:28:47.733Z,89.92
2023-01-13T08:31:17.117Z,89.72
2023-01-13T08:33:45.914Z,89.71
2023-01-13T08:36:14.127Z,89.43
2023-01-13T08:38:42.293Z,88.99
2023-01-13T08:41:36.748Z,88.89
2023-01-13T08:44:06.734Z,89.15
2023-01-13T08:46:36.492Z,89.15
2023-01-13T08:49:04.775Z,88.99
2023-01-13T08:51:32.978Z,89.10
2023-01-13T08:54:01.176Z,89.11
2023-01-13T08:56:32.754Z,88.73
2023-01-13T08:59:02.819Z,87.92
2023-01-13T09:01:31.725Z,87.51
2023-01-13T09:03:59.925Z,87.01
2023-01-13T09:06:28.014Z,86.85
2023-01-13T09:08:56.345Z,86.41
2023-01-13T09:11:50.995Z,86.17
2023-01-13T09:14:21.726Z,85.66
2023-01-13T09:16:50.209Z,84.68
2023-01-13T09:19:19.135Z,83.97
2023-01-13T09:21:47.764Z,83.81
2023-01-13T09:24:16.002Z,82.98
2023-01-13T09:26:44.689Z,82.93
2023-01-13T09:29:13.517Z,82.90
2023-01-13T09:31:44.254Z,82.11
2023-01-13T09:34:39.661Z,80.69
2023-01-13T09:37:07.825Z,79.21
2023-01-13T09:39:36.743Z,78.08
2023-01-13T09:42:51.429Z,75.39
2023-01-13T09:45:25.372Z,73.55
2023-01-13T09:48:27.973Z,74.81
2023-01-13T09:51:26.191Z,72.35
2023-01-13T09:54:00.270Z,70.83
2023-01-13T09:56:29.234Z,70.32
2023-01-13T09:58:57.884Z,69.94
2023-01-13T10:01:41.334Z,67.76
2023-01-13T10:04:15.379Z,64.59
2023-01-13T10:06:50.021Z,61.93
2023-01-13T10:09:31.406Z,62.38
2023-01-13T10:12:20.422Z,62.35
2023-01-13T10:14:55.805Z,64.60
2023-01-13T10:18:11.838Z,61.22
2023-01-13T10:20:49.015Z,58.65
2023-01-13T10:23:29.437Z,59.38
2023-01-13T10:26:26.115Z,61.03
2023-01-13T10:28:55.893Z,61.42
2023-01-13T10:31:25.573Z,61.21
2023-01-13T10:34:04.211Z,60.25
2023-01-13T10:36:32.464Z,61.26
2023-01-13T10:39:10.016Z,60.77
2023-01-13T10:41:38.139Z,59.96
2023-01-13T10:44:15.658Z,60.15
2023-01-13T10:46:55.546Z,60.17
2023-01-13T10:49:30.024Z,59.86
2023-01-13T10:51:59.269Z,60.00
2023-01-13T10:54:29.923Z,61.06
2023-01-13T10:57:20.924Z,61.16
2023-01-13T10:59:51.746Z,62.04
2023-01-13T11:02:29.734Z,62.91
2023-01-13T11:04:58.336Z,62.58
2023-01-13T11:07:40.103Z,62.27
2023-01-13T11:10:29.334Z,61.31
2023-01-13T11:13:13.940Z,62.50
2023-01-13T11:16:06.525Z,63.15
2023-01-13T11:18:37.933Z,63.35
2023-01-13T11:21:24.545Z,63.60
2023-01-13T11:24:14.997Z,63.57
2023-01-13T11:27:08.976Z,63.80
2023-01-13T11:30:09.936Z,64.31
2023-01-13T11:33:02.977Z,64.75
2023-01-13T11:35:33.052Z,64.49
2023-01-13T11:38:20.629Z,64.61
2023-01-13T11:40:51.366Z,64.94
2023-01-13T11:43:31.881Z,64.98
2023-01-13T11:46:01.574Z,64.91
2023-01-13T11:48:35.950Z,65.04
2023-01-13T11:51:16.592Z,65.77
2023-01-13T11:54:24.438Z,65.81
2023-01-13T11:57:17.525Z,65.56
2023-01-13T12:00:03.907Z,65.75
2023-01-13T12:03:31.171Z,66.48
2023-01-13T12:06:18.279Z,66.89
2023-01-13T12:09:00.731Z,65.83
2023-01-13T12:12:03.150Z,64.63
2023-01-13T12:14:58.065Z,63.92
2023-01-13T12:17:46.186Z,64.26
2023-01-13T12:20:31.068Z,63.16
2023-01-13T12:23:06.643Z,61.23
2023-01-13T12:25:41.787Z,61.45
2023-01-13T12:28:38.309Z,61.01
2023-01-13T12:31:10.314Z,61.60
2023-01-13T12:33:57.268Z,62.54
2023-01-13T12:36:34.251Z,61.10
2023-01-13T12:39:16.073Z,60.95
2023-01-13T12:42:32.040Z,62.18
2023-01-13T12:45:12.205Z,62.38
2023-01-13T12:47:44.060Z,60.97
2023-01-13T12:50:24.044Z,61.35
2023-01-13T12:52:56.181Z,61.29
2023-01-13T12:55:25.408Z,61.46
2023-01-13T12:57:57.899Z,62.07
2023-01-13T13:00:53.785Z,62.86
2023-01-13T13:03:29.449Z,63.06
2023-01-13T13:06:14.509Z,63.38
2023-01-13T13:08:45.271Z,63.43
2023-01-13T13:11:32.272Z,63.77
2023-01-13T13:14:02.787Z,64.28
2023-01-13T13:20:49.640Z,63.70
2023-01-13T13:23:37.458Z,63.03
2023-01-13T13:26:11.319Z,62.96
2023-01-13T13:28:53.219Z,63.21
2023-01-13T13:31:33.287Z,62.51
2023-01-13T13:34:15.777Z,62.20
2023-01-13T13:37:05.055Z,62.02
2023-01-13T13:39:52.796Z,62.50
2023-01-13T13:42:46.102Z,62.20
2023-01-13T13:45:39.172Z,62.35
2023-01-13T13:48:30.766Z,62.49
2023-01-13T13:51:03.019Z,62.79
2023-01-13T13:53:36.111Z,63.51
2023-01-13T13:56:15.429Z,63.77
2023-01-13T13:58:44.180Z,64.04
2023-01-13T14:01:29.998Z,64.93
2023-01-13T14:04:11.256Z,65.34
2023-01-13T14:06:59.851Z,65.88
2023-01-13T14:09:29.719Z,66.46
2023-01-13T14:12:01.698Z,67.06
2023-01-13T14:14:30.604Z,67.79
2023-01-13T14:16:58.991Z,68.50
2023-01-13T14:19:33.366Z,69.22
2023-01-13T14:22:03.892Z,70.13
2023-01-13T14:24:45.047Z,70.93
2023-01-13T14:27:18.752Z,71.71
2023-01-13T14:29:47.217Z,72.39
2023-01-13T14:32:19.508Z,72.80
2023-01-13T14:34:48.281Z,73.44
2023-01-13T14:37:40.808Z,74.10
2023-01-13T14:40:36.229Z,74.50
2023-01-13T14:43:12.365Z,74.94
2023-01-13T14:45:54.804Z,75.65
2023-01-13T14:48:36.002Z,76.35
2023-01-13T14:51:09.595Z,76.63
2023-01-13T14:53:43.792Z,76.86
2023-01-13T14:56:36.946Z,77.29
2023-01-13T14:59:42.330Z,78.23
2023-01-13T15:02:29.581Z,78.79
2023-01-13T15:05:19.117Z,79.33
2023-01-13T15:08:02.654Z,79.66
2023-01-13T15:11:01.869Z,80.23
2023-01-13T15:13:39.740Z,80.62
2023-01-13T15:16:22.516Z,81.46
2023-01-13T15:18:51.742Z,81.46
2023-01-13T15:21:20.879Z,82.31
2023-01-13T15:23:51.701Z,82.83
2023-01-13T15:26:30.300Z,82.61
2023-01-13T15:29:00.750Z,82.75
2023-01-13T15:31:29.539Z,83.54
2023-01-13T15:33:59.012Z,83.51
2023-01-13T15:36:32.227Z,83.83
2023-01-13T15:39:01.832Z,84.12
2023-01-13T15:41:49.613Z,84.57
2023-01-13T15:44:36.376Z,84.66
2023-01-13T15:47:10.215Z,85.08
2023-01-13T15:49:44.280Z,84.85
2023-01-13T15:52:24.566Z,84.64
2023-01-13T15:54:54.688Z,84.73
2023-01-13T15:57:28.934Z,85.24
2023-01-13T16:00:00.877Z,85.47
2023-01-13T16:02:31.066Z,85.35
2023-01-13T16:04:59.539Z,85.50
2023-01-13T16:07:28.438Z,85.79
2023-01-13T16:09:56.707Z,86.13
2023-01-13T16:12:25.045Z,86.27
2023-01-13T16:14:53.157Z,86.60
2023-01-13T16:17:29.703Z,86.91
2023-01-13T16:19:57.837Z,86.92
2023-01-13T16:22:26.339Z,87.32
2023-01-13T16:24:54.652Z,87.75
2023-01-13T16:27:25.436Z,87.76
2023-01-13T16:29:53.674Z,87.66
2023-01-13T16:32:22.122Z,87.98
2023-01-13T16:34:50.365Z,88.20
2023-01-13T16:37:27.240Z,88.36
2023-01-13T16:39:55.441Z,88.45
2023-01-13T16:42:23.758Z,88.47
2023-01-13T16:44:53.125Z,88.63
2023-01-13T16:47:22.983Z,89.01
2023-01-13T16:49:51.720Z,89.19
2023-01-13T16:52:19.933Z,89.00
2023-01-13T16:54:48.043Z,88.86
2023-01-13T16:57:16.292Z,89.06
2023-01-13T16:59:44.564Z,89.55
2023-01-13T17:02:19.662Z,89.76
2023-01-13T17:04:51.244Z,90.03
2023-01-13T17:07:20.075Z,89.86
2023-01-13T17:09:48.365Z,89.93
2023-01-13T17:12:16.491Z,90.45
2023-01-13T17:14:44.734Z,90.43
2023-01-13T17:17:22.318Z,90.32
2023-01-13T17:19:51.468Z,90.33
2023-01-13T17:22:21.392Z,90.31
2023-01-13T17:24:49.566Z,90.43
2023-01-13T17:27:18.898Z,90.65
2023-01-13T17:29:47.728Z,92.12
2023-01-13T17:32:20.753Z,92.60
2023-01-13T17:34:49.410Z,92.28
2023-01-13T17:37:18.056Z,91.84
2023-01-13T17:39:48.693Z,91.55
2023-01-13T17:42:17.486Z,91.66
2023-01-13T17:44:48.051Z,91.52
2023-01-13T17:47:16.360Z,91.37
2023-01-13T17:49:44.732Z,91.85
2023-01-13T17:52:13.132Z,92.07
2023-01-13T17:54:43.217Z,91.85
2023-01-13T17:57:11.724Z,92.01
2023-01-13T17:59:41.870Z,92.48
2023-01-13T18:02:12.728Z,92.87
2023-01-13T18:04:42.098Z,93.05
2023-01-13T18:07:10.226Z,93.22
2023-01-13T18:09:38.433Z,93.14
2023-01-13T18:12:06.790Z,93.28
2023-01-13T18:14:35.139Z,93.23
2023-01-13T18:17:03.398Z,93.54
2023-01-13T18:19:50.382Z,93.51
2023-01-13T18:22:37.041Z,93.59
2023-01-13T18:25:24.777Z,93.78
2023-01-13T18:27:52.989Z,93.92
2023-01-13T18:30:21.174Z,93.51
2023-01-13T18:32:49.356Z,93.85
2023-01-13T18:35:17.653Z,94.13
2023-01-13T18:37:45.907Z,94.65
2023-01-13T18:40:14.520Z,95.24
2023-01-13T18:42:52.235Z,95.05
2023-01-13T18:45:26.164Z,94.75
2023-01-13T18:47:57.427Z,94.48
2023-01-13T18:50:27.242Z,94.52
2023-01-13T18:52:56.120Z,94.97
2023-01-13T18:55:25.223Z,95.16
2023-01-13T18:57:54.008Z,95.68
2023-01-13T19:00:23.053Z,95.79
2023-01-13T19:05:36.111Z,96.10
2023-01-13T19:08:04.882Z,95.81
2023-01-13T19:10:33.224Z,95.55
2023-01-13T19:13:01.877Z,95.93
2023-01-13T19:15:30.569Z,96.06
2023-01-13T19:17:59.085Z,95.70
2023-01-13T19:20:27.515Z,95.47
2023-01-13T19:22:55.627Z,95.15
2023-01-13T19:25:23.769Z,95.09
2023-01-13T19:27:52.020Z,95.04
2023-01-13T19:30:20.256Z,95.23
2023-01-13T19:32:48.420Z,95.15
2023-01-13T19:35:18.209Z,95.41
2023-01-13T19:37:46.978Z,95.38
2023-01-13T19:40:15.877Z,95.57
2023-01-13T19:43:03.539Z,95.66
2023-01-13T19:45:35.199Z,95.43
2023-01-13T19:48:05.730Z,95.46
2023-01-13T19:50:41.422Z,95.50
2023-01-13T19:53:17.695Z,95.53
2023-01-13T19:55:48.613Z,95.86
2023-01-13T19:58:20.727Z,96.52
2023-01-13T20:00:49.210Z,96.70
2023-01-13T20:03:20.874Z,96.37
2023-01-13T20:05:49.145Z,96.09
2023-01-13T20:08:19.435Z,96.08
2023-01-13T20:10:49.254Z,96.10
2023-01-13T20:13:17.682Z,96.19
2023-01-13T20:15:45.892Z,96.12
2023-01-13T20:18:14.945Z,96.37
2023-01-13T20:20:43.116Z,96.27
2023-01-13T20:23:11.345Z,96.45
2023-01-13T20:25:42.667Z,96.57
2023-01-13T20:28:11.035Z,96.36
2023-01-13T20:30:40.282Z,96.26
2023-01-13T20:33:08.737Z,96.10
2023-01-13T20:35:37.297Z,95.99
2023-01-13T20:38:05.549Z,95.97
2023-01-13T20:40:34.161Z,96.00
2023-01-13T20:43:02.459Z,95.86
2023-01-13T20:45:30.555Z,95.93
2023-01-13T20:47:58.827Z,95.94
2023-01-13T20:50:26.956Z,95.88
2023-01-13T20:52:55.053Z,95.85
2023-01-13T20:55:23.359Z,95.84
2023-01-13T20:57:51.644Z,95.85
2023-01-13T21:00:20.208Z,95.90
2023-01-13T21:02:48.470Z,95.87
2023-01-13T21:05:16.770Z,95.91
2023-01-13T21:07:45.175Z,95.99
2023-01-13T21:10:13.394Z,95.94
2023-01-13T21:13:00.261Z,95.88
2023-01-13T21:15:28.418Z,95.90
2023-01-13T21:18:15.257Z,96.02
2023-01-13T21:20:43.734Z,96.02
2023-01-13T21:23:12.111Z,96.04
2023-01-13T21:25:40.509Z,96.05
2023-01-13T21:28:11.687Z,96.02
2023-01-13T21:30:40.182Z,96.11
2023-01-13T21:33:13.563Z,95.93
2023-01-13T21:35:41.944Z,95.85
2023-01-13T21:38:11.433Z,95.74
2023-01-13T21:40:39.699Z,95.76
2023-01-13T21:43:31.090Z,95.68
2023-01-13T21:46:18.095Z,95.67
2023-01-13T21:48:46.203Z,95.81
2023-01-13T21:51:14.660Z,95.90
2023-01-13T21:53:42.977Z,96.04
2023-01-13T21:56:11.311Z,96.19
2023-01-13T21:58:40.203Z,96.44
2023-01-13T22:01:10.089Z,96.60
2023-01-13T22:03:59.825Z,96.75
2023-01-13T22:06:28.126Z,96.79
2023-01-13T22:09:01.207Z,96.95
2023-01-13T22:11:29.588Z,97.12
2023-01-13T22:14:09.313Z,96.97
2023-01-13T22:16:41.807Z,96.87
2023-01-13T22:19:10.895Z,96.79
2023-01-13T22:21:40.193Z,96.80
2023-01-13T22:24:08.802Z,97.08
2023-01-13T22:26:37.108Z,97.17
2023-01-13T22:29:06.297Z,97.22
2023-01-13T22:31:35.420Z,97.13
2023-01-13T22:34:03.956Z,97.15
2023-01-13T22:36:32.258Z,97.16
2023-01-13T22:39:00.748Z,97.21
2023-01-13T22:41:29.217Z,97.36
2023-01-13T22:43:58.426Z,97.40
2023-01-13T22:46:26.807Z,97.56
2023-01-13T22:48:56.248Z,97.89
2023-01-13T22:51:25.300Z,98.01
2023-01-13T22:53:55.389Z,98.04
2023-01-13T22:56:25.370Z,98.11
2023-01-13T22:59:01.899Z,98.08
2023-01-13T23:01:32.884Z,98.01
2023-01-13T23:04:02.535Z,97.98
2023-01-13T23:06:32.491Z,98.15
2023-01-13T23:09:01.079Z,98.27
2023-01-13T23:11:35.375Z,97.98
2023-01-13T23:14:06.960Z,97.99
2023-01-13T23:16:38.562Z,98.01
2023-01-13T23:19:08.290Z,98.10
2023-01-13T23:21:38.204Z,98.25
2023-01-13T23:24:07.667Z,98.40
2023-01-13T23:26:36.638Z,98.68
2023-01-13T23:29:08.324Z,98.66
2023-01-13T23:31:36.523Z,98.70
2023-01-13T23:34:04.917Z,98.74
2023-01-13T23:36:37.036Z,98.77
2023-01-13T23:39:05.189Z,98.76
2023-01-13T23:41:33.618Z,98.66
2023-01-13T23:44:01.909Z,98.67
2023-01-13T23:46:33.139Z,98.66
2023-01-13T23:49:03.459Z,98.57
2023-01-13T23:51:32.368Z,98.66
2023-01-13T23:54:00.743Z,98.54
2023-01-13T23:56:30.846Z,98.50
2023-01-13T23:58:59.496Z,98.49
